This is the latest recevied weather packets stored in our database for station/object HA2SKA-1. If no packets are shown the sender has not sent any weather packets the latest 10 day(s).
| Time | Temp. | Humidity | Pressure | Rain* | Wind** | Luminosity | Snow |
|---|---|---|---|---|---|---|---|
| 1777527963 | 5° C | 47% | 1030.4 hPa | - | - | - | - |
| 1777527063 | 4.44° C | 47% | 1030.2 hPa | - | - | - | - |
| 1777526162 | 5° C | 46% | 1030.2 hPa | - | - | - | - |
| 1777525262 | 5° C | 46% | 1030.1 hPa | - | - | - | - |
| 1777524362 | 5.56° C | 44% | 1030 hPa | - | - | - | - |
| 1777523462 | 3.89° C | 48% | 1029.8 hPa | - | - | - | - |
| 1777522562 | 2.22° C | 52% | 1029.8 hPa | - | - | - | - |
| 1777521662 | 1.67° C | 55% | 1029.8 hPa | - | - | - | - |
| 1777520762 | 2.78° C | 50% | 1029.7 hPa | - | - | - | - |
| 1777519862 | 2.22° C | 50% | 1029.4 hPa | - | - | - | - |
| 1777518962 | 1.67° C | 52% | 1029.5 hPa | - | - | - | - |
| 1777518062 | 1.67° C | 52% | 1029.4 hPa | - | - | - | - |
| 1777517161 | 1.67° C | 52% | 1029.5 hPa | - | - | - | - |
| 1777516261 | 2.22° C | 51% | 1029.3 hPa | - | - | - | - |
| 1777515361 | 2.22° C | 51% | 1029.2 hPa | - | - | - | - |
| 1777514461 | 2.22° C | 50% | 1029.1 hPa | - | - | - | - |
| 1777513561 | 2.22° C | 51% | 1029.1 hPa | - | - | - | - |
| 1777512661 | 2.22° C | 50% | 1028.9 hPa | - | - | - | - |
| 1777511761 | 2.78° C | 50% | 1028.9 hPa | - | - | - | - |
| 1777510861 | 3.89° C | 47% | 1028.8 hPa | - | - | - | - |
| 1777509961 | 3.89° C | 47% | 1028.6 hPa | - | - | - | - |
| 1777509061 | 5° C | 44% | 1028.6 hPa | - | - | - | - |
| 1777508161 | 5.56° C | 42% | 1028.5 hPa | - | - | - | - |
| 1777507260 | 5.56° C | 43% | 1028.4 hPa | - | - | - | - |
| 1777506360 | 6.67° C | 39% | 1028.3 hPa | - | - | - | - |
* Rain since midnight (hover to see other rain measurements)
** Current wind speed in m/s (hover to see current wind gust speed)